createdAt,value
2023-01-19T00:01:16.100Z,94629.25
2023-01-19T00:06:18.297Z,94628.34
2023-01-19T00:11:19.905Z,94632.22
2023-01-19T00:16:21.924Z,94633.63
2023-01-19T00:21:23.477Z,94640.00
2023-01-19T00:26:25.041Z,94642.94
2023-01-19T00:31:26.588Z,94649.78
2023-01-19T00:36:28.318Z,94647.50
2023-01-19T00:41:29.775Z,94644.72
2023-01-19T00:46:31.226Z,94652.72
2023-01-19T00:51:32.695Z,94656.03
2023-01-19T00:56:34.251Z,94651.91
2023-01-19T01:01:45.002Z,94661.38
2023-01-19T01:06:51.743Z,94672.31
2023-01-19T01:11:53.341Z,94673.59
2023-01-19T01:16:54.843Z,94681.91
2023-01-19T01:21:56.403Z,94684.63
2023-01-19T01:26:57.958Z,94696.41
2023-01-19T01:31:59.502Z,94686.00
2023-01-19T01:37:01.021Z,94689.81
2023-01-19T01:42:03.706Z,94693.88
2023-01-19T01:47:05.352Z,94702.38
2023-01-19T01:52:07.310Z,94700.88
2023-01-19T01:57:10.744Z,94701.50
2023-01-19T02:02:23.215Z,94692.00
2023-01-19T02:07:38.276Z,94697.47
2023-01-19T02:12:39.857Z,94704.84
2023-01-19T02:17:41.955Z,94708.19
2023-01-19T02:22:49.563Z,94704.75
2023-01-19T02:27:52.701Z,94717.44
2023-01-19T02:32:54.281Z,94717.69
2023-01-19T02:37:56.757Z,94721.69
2023-01-19T02:42:59.854Z,94725.97
2023-01-19T02:48:01.710Z,94722.88
2023-01-19T02:53:21.259Z,94728.22
2023-01-19T02:58:44.976Z,94731.88
2023-01-19T03:03:53.757Z,94732.06
2023-01-19T03:09:02.849Z,94734.47
2023-01-19T03:14:14.100Z,94738.94
2023-01-19T03:19:22.297Z,94742.66
2023-01-19T03:24:26.960Z,94734.56
2023-01-19T03:29:32.386Z,94738.78
2023-01-19T03:34:35.013Z,94736.72
2023-01-19T03:39:37.068Z,94736.94
2023-01-19T03:44:41.095Z,94737.41
2023-01-19T03:49:45.602Z,94741.19
2023-01-19T03:54:47.136Z,94738.22
2023-01-19T03:59:48.664Z,94744.63
2023-01-19T04:04:50.530Z,94749.81
2023-01-19T04:09:51.962Z,94747.13
2023-01-19T04:14:53.416Z,94746.22
2023-01-19T04:19:54.878Z,94752.53
2023-01-19T04:24:56.331Z,94759.97
2023-01-19T04:29:57.787Z,94757.38
2023-01-19T04:34:59.643Z,94764.22
2023-01-19T04:40:01.157Z,94766.16
2023-01-19T04:45:02.692Z,94767.38
2023-01-19T04:50:04.838Z,94770.84
2023-01-19T04:55:07.059Z,94771.28
2023-01-19T05:00:09.210Z,94769.66
2023-01-19T05:05:11.533Z,94773.25
2023-01-19T05:10:13.051Z,94773.25
2023-01-19T05:15:14.635Z,94767.94
2023-01-19T05:20:16.555Z,94776.47
2023-01-19T05:25:18.595Z,94785.81
2023-01-19T05:30:20.192Z,94793.63
2023-01-19T05:35:31.354Z,94787.47
2023-01-19T05:40:36.956Z,94799.50
2023-01-19T05:45:38.535Z,94794.91
2023-01-19T05:50:40.066Z,94810.75
2023-01-19T05:55:41.640Z,94818.59
2023-01-19T06:00:43.208Z,94815.69
2023-01-19T06:05:44.688Z,94817.59
2023-01-19T06:10:46.222Z,94831.88
2023-01-19T06:15:47.741Z,94832.97
2023-01-19T06:20:49.249Z,94838.56
2023-01-19T06:25:50.752Z,94832.69
2023-01-19T06:30:54.159Z,94829.28
2023-01-19T06:35:56.226Z,94841.53
2023-01-19T06:40:58.668Z,94854.22
2023-01-19T06:46:00.706Z,94851.22
2023-01-19T06:51:02.314Z,94857.53
2023-01-19T06:56:04.524Z,94863.19
2023-01-19T07:01:07.631Z,94870.63
2023-01-19T07:06:09.414Z,94876.94
2023-01-19T07:11:25.050Z,94880.53
2023-01-19T07:16:32.003Z,94883.47
2023-01-19T07:21:33.446Z,94887.09
2023-01-19T07:26:34.974Z,94892.63
2023-01-19T07:31:36.592Z,94899.16
2023-01-19T07:36:38.230Z,94900.66
2023-01-19T07:41:39.876Z,94907.06
2023-01-19T07:46:41.816Z,94910.06
2023-01-19T07:51:43.266Z,94916.88
2023-01-19T07:56:44.768Z,94918.16
2023-01-19T08:01:46.594Z,94913.03
2023-01-19T08:06:48.142Z,94920.38
2023-01-19T08:11:49.726Z,94913.03
2023-01-19T08:16:51.441Z,94908.22
2023-01-19T08:21:53.206Z,94918.41
2023-01-19T08:26:59.750Z,94919.03
2023-01-19T08:32:01.546Z,94925.66
2023-01-19T08:37:03.202Z,94930.38
2023-01-19T08:42:04.730Z,94933.06
2023-01-19T08:47:06.332Z,94935.72
2023-01-19T08:52:07.935Z,94938.75
2023-01-19T08:57:09.478Z,94931.16
2023-01-19T09:02:11.084Z,94930.25
2023-01-19T09:07:12.705Z,94935.50
2023-01-19T09:12:14.196Z,94943.09
2023-01-19T09:17:15.632Z,94938.03
2023-01-19T09:22:17.187Z,94933.19
2023-01-19T09:27:18.654Z,94935.47
2023-01-19T09:32:21.636Z,94935.00
2023-01-19T09:37:23.122Z,94949.72
2023-01-19T09:42:40.093Z,94939.28
2023-01-19T09:47:42.373Z,94933.00
2023-01-19T09:52:50.695Z,94932.66
2023-01-19T09:57:53.200Z,94933.34
2023-01-19T10:03:10.715Z,94928.41
2023-01-19T10:08:46.174Z,94927.34
2023-01-19T10:13:50.666Z,94929.81
2023-01-19T10:18:56.517Z,94928.47
2023-01-19T10:24:19.341Z,94919.94
2023-01-19T10:29:35.575Z,94912.91
2023-01-19T10:34:37.159Z,94910.34
2023-01-19T10:39:40.715Z,94906.63
2023-01-19T10:44:43.966Z,94903.94
2023-01-19T10:49:46.899Z,94903.66
2023-01-19T10:54:48.501Z,94900.97
2023-01-19T10:59:50.606Z,94902.66
2023-01-19T11:04:54.935Z,94903.63
2023-01-19T11:10:13.719Z,94892.81
2023-01-19T11:15:20.878Z,94886.56
2023-01-19T11:20:26.000Z,94892.41
2023-01-19T11:25:31.453Z,94891.13
2023-01-19T11:30:35.305Z,94886.53
2023-01-19T11:35:39.584Z,94886.13
2023-01-19T11:40:46.906Z,94888.72
2023-01-19T11:45:48.524Z,94886.06
2023-01-19T11:50:53.373Z,94872.25
2023-01-19T11:56:01.018Z,94872.34
2023-01-19T12:01:30.050Z,94864.28
2023-01-19T12:06:38.321Z,94873.16
2023-01-19T12:11:48.807Z,94867.88
2023-01-19T12:16:53.152Z,94865.34
2023-01-19T12:21:55.717Z,94866.03
2023-01-19T12:27:11.032Z,94873.34
2023-01-19T12:32:15.546Z,94869.25
2023-01-19T12:37:39.637Z,94875.88
2023-01-19T12:42:46.890Z,94864.72
2023-01-19T12:47:56.218Z,94872.34
2023-01-19T12:53:01.562Z,94866.41
2023-01-19T12:58:24.389Z,94867.66
2023-01-19T13:03:25.771Z,94869.75
2023-01-19T13:08:48.230Z,94866.91
2023-01-19T13:13:49.632Z,94867.41
2023-01-19T13:19:06.373Z,94867.41
2023-01-19T13:24:20.014Z,94855.88
2023-01-19T13:29:34.975Z,94857.00
2023-01-19T13:34:43.663Z,94848.81
2023-01-19T13:39:47.963Z,94853.63
2023-01-19T13:44:53.394Z,94852.69
2023-01-19T13:49:58.758Z,94848.09
2023-01-19T13:55:03.808Z,94853.47
2023-01-19T14:00:11.832Z,94852.72
2023-01-19T14:05:15.021Z,94853.03
2023-01-19T14:10:16.816Z,94863.56
2023-01-19T14:15:18.401Z,94857.81
2023-01-19T14:20:30.326Z,94867.88
2023-01-19T14:25:36.549Z,94853.56
2023-01-19T14:30:38.084Z,94855.72
2023-01-19T14:35:39.545Z,94852.34
2023-01-19T14:40:41.162Z,94853.44
2023-01-19T14:45:47.432Z,94853.94
2023-01-19T14:51:02.308Z,94849.66
2023-01-19T14:56:05.958Z,94857.19
2023-01-19T15:01:07.575Z,94860.69
2023-01-19T15:06:22.684Z,94861.00
2023-01-19T15:11:29.748Z,94859.06
2023-01-19T15:16:33.863Z,94866.94
2023-01-19T15:21:35.445Z,94855.19
2023-01-19T15:26:41.854Z,94857.97
2023-01-19T15:31:43.469Z,94857.69
2023-01-19T15:36:45.146Z,94857.13
2023-01-19T15:41:46.686Z,94859.03
2023-01-19T15:46:48.184Z,94862.03
2023-01-19T15:51:49.756Z,94857.63
2023-01-19T15:56:51.279Z,94861.69
2023-01-19T16:01:52.976Z,94855.72
2023-01-19T16:06:54.651Z,94857.41
2023-01-19T16:11:56.229Z,94864.88
2023-01-19T16:16:57.673Z,94863.19
2023-01-19T16:22:06.679Z,94863.91
2023-01-19T16:27:08.224Z,94862.81
2023-01-19T16:32:09.717Z,94855.69
2023-01-19T16:37:11.784Z,94858.53
2023-01-19T16:42:13.235Z,94867.06
2023-01-19T16:47:14.842Z,94861.88
2023-01-19T16:52:16.330Z,94857.53
2023-01-19T16:57:17.779Z,94857.88
2023-01-19T17:02:19.370Z,94850.50
2023-01-19T17:07:20.889Z,94854.88
2023-01-19T17:12:22.462Z,94849.91
2023-01-19T17:17:24.021Z,94844.56
2023-01-19T17:22:25.564Z,94850.34
2023-01-19T17:27:27.025Z,94853.28
2023-01-19T17:32:29.729Z,94844.19
2023-01-19T17:37:31.322Z,94841.66
2023-01-19T17:42:32.757Z,94850.03
2023-01-19T17:47:34.279Z,94852.88
2023-01-19T17:52:35.847Z,94848.50
2023-01-19T17:57:37.374Z,94847.66
2023-01-19T18:02:39.032Z,94834.88
2023-01-19T18:07:40.528Z,94842.94
2023-01-19T18:12:42.130Z,94837.28
2023-01-19T18:17:43.771Z,94836.97
2023-01-19T18:22:45.274Z,94837.47
2023-01-19T18:27:46.716Z,94838.97
2023-01-19T18:32:48.347Z,94834.94
2023-01-19T18:37:49.793Z,94830.78
2023-01-19T18:42:51.224Z,94832.22
2023-01-19T18:47:52.705Z,94830.19
2023-01-19T18:52:54.491Z,94842.09
2023-01-19T18:57:55.994Z,94834.72
2023-01-19T19:02:57.990Z,94833.19
2023-01-19T19:07:59.496Z,94832.25
2023-01-19T19:13:01.150Z,94821.66
2023-01-19T19:18:02.657Z,94833.19
2023-01-19T19:23:04.218Z,94826.31
2023-01-19T19:28:05.698Z,94827.44
2023-01-19T19:33:07.151Z,94827.19
2023-01-19T19:38:08.577Z,94829.28
2023-01-19T19:43:10.024Z,94835.00
2023-01-19T19:48:11.530Z,94838.19
2023-01-19T19:53:13.032Z,94839.25
2023-01-19T19:58:14.539Z,94835.88
2023-01-19T20:03:15.994Z,94841.69
2023-01-19T20:08:17.431Z,94840.25
2023-01-19T20:13:18.924Z,94847.06
2023-01-19T20:18:20.432Z,94838.69
2023-01-19T20:23:21.889Z,94848.78
2023-01-19T20:28:23.410Z,94847.44
2023-01-19T20:33:24.941Z,94846.72
2023-01-19T20:38:26.387Z,94852.34
2023-01-19T20:43:28.987Z,94843.84
2023-01-19T20:48:30.924Z,94846.31
2023-01-19T20:53:33.313Z,94851.31
2023-01-19T20:58:34.845Z,94847.78
2023-01-19T21:03:36.388Z,94847.97
2023-01-19T21:08:37.992Z,94853.38
2023-01-19T21:13:39.630Z,94860.25
2023-01-19T21:18:41.270Z,94869.28
2023-01-19T21:23:42.839Z,94864.94
2023-01-19T21:28:44.297Z,94855.66
2023-01-19T21:33:45.808Z,94860.75
2023-01-19T21:38:47.345Z,94862.97
2023-01-19T21:43:48.860Z,94860.56
2023-01-19T21:48:50.348Z,94865.56
2023-01-19T21:53:51.887Z,94868.16
2023-01-19T21:58:54.448Z,94879.06
2023-01-19T22:03:57.449Z,94885.44
2023-01-19T22:08:59.013Z,94888.00
2023-01-19T22:14:00.587Z,94897.28
2023-01-19T22:19:02.132Z,94896.78
2023-01-19T22:24:05.429Z,94904.06
2023-01-19T22:29:07.285Z,94910.31
2023-01-19T22:34:09.171Z,94906.03
2023-01-19T22:39:11.992Z,94901.75
2023-01-19T22:44:15.772Z,94913.09
2023-01-19T22:49:18.196Z,94908.38
2023-01-19T22:54:19.787Z,94916.34
2023-01-19T22:59:21.333Z,94910.16
2023-01-19T23:04:22.786Z,94919.78
2023-01-19T23:09:24.307Z,94918.50
2023-01-19T23:14:26.283Z,94921.94
2023-01-19T23:19:27.745Z,94918.53
2023-01-19T23:24:29.214Z,94924.59
2023-01-19T23:29:30.665Z,94932.47
2023-01-19T23:34:32.110Z,94933.16
2023-01-19T23:39:33.663Z,94929.91
2023-01-19T23:44:35.114Z,94938.03
2023-01-19T23:49:36.612Z,94944.31
2023-01-19T23:54:38.060Z,94947.50
2023-01-19T23:59:39.556Z,94948.28
